Decoded Metar for LEVT (VITORIA in SPAIN) (IATA:VIT) | Meteo·Mobile Aviation Weather
aviador You're here:

LEVT Decoded Metar

VITORIA in SPAIN
Report Time2018-09-20 08:00:00
UTC Time2018-09-20 08:23:44
Flight Rules vfr VFR
Wind200° at 03 kt
W.Decomp.*RWY 22: 2.9 kt HW 0.9 kt LCW
W.Rank200° ranks 19
Current wind is below 200° avg. (5.5)
Visibility9999 m
Phenomena:N/A
Clouds:Scattered 012 Hf
Expected CloudBase > 1,600 ft AGL from Temp-Dew spread
CeilingNone
Temp20°C (ISA +8)
Dew Point16°C (78% RH)
QNH1022 hPa
Density Alt2,585 ft
Elevation1,670 ft
Report Wrong Elevation
Raw Report
LEVT 200800Z 20003KT 130V280 9999 SCT012 20/16 Q1022=

Extra information for LEVT:More info

Metar Taf Metar & Taf Last 4 Metars F.Rules Stats Wind Profile Meteogram Temp Stats Airport Information Weather charts Add Link Nearby VenuesMetar ALERT Operation Metar Decoded Social comments